Time;durP1;ratioP1;P1;durP2;ratioP2;P2;SDS_P1;SDS_P2;PMS_P1;PMS_P2;Temp;Humidity;BMP_temperature;BMP_pressure;BME280_temperature;BME280_humidity;BME280_pressure;Samples;Min_cycle;Max_cycle;Signal;HPM_P1;HPM_P2
2023/03/08 00:02:08;;;;;;;;;;;3.20;99.90;;;;;;5086781;28;19913;-74
2023/03/08 00:04:33;;;;;;;;;;;3.10;99.90;;;;;;5090069;28;19916;-74
2023/03/08 00:06:59;;;;;;;;;;;3.10;99.90;;;;;;5089387;28;19912;-74
2023/03/08 00:09:24;;;;;;;;;;;3.10;99.90;;;;;;5090543;28;19919;-75
2023/03/08 00:11:50;;;;;;;;;;;3.10;99.90;;;;;;5090335;28;19912;-75
2023/03/08 00:14:16;;;;;;;;;;;3.10;99.90;;;;;;5095507;28;19923;-75
2023/03/08 00:16:42;;;;;;;;;;;3.10;99.90;;;;;;5106642;28;19915;-75
2023/03/08 00:19:07;;;;;;;;;;;3.10;99.90;;;;;;5090543;28;19920;-74
2023/03/08 00:21:33;;;;;;;;;;;3.10;99.90;;;;;;5090357;28;20373;-74
2023/03/08 00:23:58;;;;;;;;;;;3.10;99.90;;;;;;5101972;28;19915;-74
2023/03/08 00:26:24;;;;;;;;;;;3.10;99.90;;;;;;5110588;28;19915;-74
2023/03/08 00:28:49;;;;;;;;;;;3.10;99.90;;;;;;5109906;28;19911;-74
2023/03/08 00:31:15;;;;;;;;;;;3.10;99.90;;;;;;5110739;28;19912;-74
2023/03/08 00:33:40;;;;;;;;;;;3.10;99.90;;;;;;5108742;28;19911;-74
2023/03/08 00:36:08;;;;;;;;;;;3.10;99.90;;;;;;5110487;28;19953;-74
2023/03/08 00:38:35;;;;;;;;;;;3.10;99.90;;;;;;5107944;27;19919;-74
2023/03/08 00:41:00;;;;;;;;;;;3.10;99.90;;;;;;5087614;28;19912;-75
2023/03/08 00:43:26;;;;;;;;;;;3.10;99.90;;;;;;5102074;28;20468;-74
2023/03/08 00:45:52;;;;;;;;;;;3.10;99.90;;;;;;5108598;28;19927;-74
2023/03/08 00:48:17;;;;;;;;;;;3.10;99.90;;;;;;5094414;28;19912;-74
2023/03/08 00:50:43;;;;;;;;;;;3.10;99.90;;;;;;5089793;28;19922;-75
2023/03/08 00:53:08;;;;;;;;;;;3.10;99.90;;;;;;5094503;28;20246;-74
2023/03/08 00:55:34;;;;;;;;;;;3.10;99.90;;;;;;5109964;28;19912;-74
2023/03/08 00:57:59;;;;;;;;;;;3.10;99.90;;;;;;5110000;27;20573;-74
2023/03/08 01:00:25;;;;;;;;;;;3.10;99.90;;;;;;5104382;28;20002;-74
2023/03/08 01:02:50;;;;;;;;;;;3.10;99.90;;;;;;5085756;28;19919;-74
2023/03/08 01:05:16;;;;;;;;;;;3.10;99.90;;;;;;5089129;28;19920;-74
2023/03/08 01:07:41;;;;;;;;;;;3.10;99.90;;;;;;5089450;28;20008;-74
2023/03/08 01:10:07;;;;;;;;;;;3.10;99.90;;;;;;5089388;28;19932;-74
2023/03/08 01:12:34;;;;;;;;;;;3.10;99.90;;;;;;5073684;28;19931;-74
2023/03/08 01:14:59;;;;;;;;;;;3.10;99.90;;;;;;5068982;28;20584;-74
2023/03/08 01:17:25;;;;;;;;;;;3.10;99.90;;;;;;5078489;28;19916;-74
2023/03/08 01:19:50;;;;;;;;;;;3.10;99.90;;;;;;5089222;28;20812;-75
2023/03/08 01:22:16;;;;;;;;;;;3.10;99.90;;;;;;5088957;28;19918;-74
2023/03/08 01:24:45;;;;;;;;;;;3.10;99.90;;;;;;5106758;28;19916;-74
2023/03/08 01:27:11;;;;;;;;;;;3.00;99.90;;;;;;5108348;28;19918;-74
2023/03/08 01:29:36;;;;;;;;;;;3.10;99.90;;;;;;5109627;28;19911;-74
2023/03/08 01:32:02;;;;;;;;;;;3.10;99.90;;;;;;5109258;28;19918;-74
2023/03/08 01:34:27;;;;;;;;;;;3.10;99.90;;;;;;5108770;28;20617;-74
2023/03/08 01:36:53;;;;;;;;;;;3.10;99.90;;;;;;5109455;28;19985;-74
2023/03/08 01:39:18;;;;;;;;;;;3.10;99.90;;;;;;5100249;28;19912;-74
2023/03/08 01:41:44;;;;;;;;;;;3.00;99.90;;;;;;5080116;28;20331;-74
2023/03/08 01:44:16;;;;;;;;;;;3.00;99.90;;;;;;5068432;28;19908;-74
2023/03/08 01:46:42;;;;;;;;;;;3.00;99.90;;;;;;5070588;28;20365;-74
2023/03/08 01:49:16;;;;;;;;;;;3.10;99.90;;;;;;5089360;28;19918;-74
2023/03/08 01:51:46;;;;;;;;;;;3.00;99.90;;;;;;5068664;28;19915;-74
2023/03/08 01:54:14;;;;;;;;;;;3.00;99.90;;;;;;5093600;28;19916;-74
2023/03/08 01:56:41;;;;;;;;;;;3.00;99.90;;;;;;5088652;28;19914;-74
2023/03/08 01:59:07;;;;;;;;;;;3.00;99.90;;;;;;5088830;28;20368;-74
2023/03/08 02:01:33;;;;;;;;;;;3.00;99.90;;;;;;5087456;28;19912;-74
2023/03/08 02:03:59;;;;;;;;;;;3.00;99.90;;;;;;5085340;28;19969;-74
2023/03/08 02:06:25;;;;;;;;;;;3.00;99.90;;;;;;5089468;28;20348;-74
2023/03/08 02:08:50;;;;;;;;;;;3.00;99.90;;;;;;5087334;28;19916;-74
2023/03/08 02:11:17;;;;;;;;;;;3.00;99.90;;;;;;5079862;28;19916;-74
2023/03/08 02:13:43;;;;;;;;;;;3.00;99.90;;;;;;5088249;28;19922;-74
2023/03/08 02:16:10;;;;;;;;;;;3.00;99.90;;;;;;5088288;28;19908;-74
2023/03/08 02:18:35;;;;;;;;;;;3.00;99.90;;;;;;5087785;28;19969;-74
2023/03/08 02:21:01;;;;;;;;;;;3.00;99.90;;;;;;5088292;28;20528;-75
2023/03/08 02:23:26;;;;;;;;;;;3.00;99.90;;;;;;5100781;28;19924;-74
2023/03/08 02:25:53;;;;;;;;;;;3.00;99.90;;;;;;5108372;28;19919;-74
2023/03/08 02:28:19;;;;;;;;;;;3.00;99.90;;;;;;5108422;28;19912;-74
2023/03/08 02:30:45;;;;;;;;;;;3.00;99.90;;;;;;5108293;28;19919;-74
2023/03/08 02:33:11;;;;;;;;;;;3.00;99.90;;;;;;5094943;28;19912;-74
2023/03/08 02:35:37;;;;;;;;;;;3.00;99.90;;;;;;5087908;28;20534;-74
2023/03/08 02:38:03;;;;;;;;;;;3.00;99.90;;;;;;5089430;28;20478;-74
2023/03/08 02:40:28;;;;;;;;;;;3.00;99.90;;;;;;5089654;28;19919;-74
2023/03/08 02:42:55;;;;;;;;;;;3.00;99.90;;;;;;5067949;28;19924;-74
2023/03/08 02:45:21;;;;;;;;;;;3.00;99.90;;;;;;5067490;28;19927;-74
2023/03/08 02:47:46;;;;;;;;;;;3.00;99.90;;;;;;5090143;28;19963;-74
2023/03/08 02:50:12;;;;;;;;;;;3.00;99.90;;;;;;5108434;28;19947;-74
2023/03/08 02:52:37;;;;;;;;;;;3.00;99.90;;;;;;5108386;28;19915;-74
2023/03/08 02:55:03;;;;;;;;;;;3.00;99.90;;;;;;5100830;28;20287;-75
2023/03/08 02:57:28;;;;;;;;;;;3.00;99.90;;;;;;5087681;28;19908;-74
2023/03/08 02:59:54;;;;;;;;;;;3.00;99.90;;;;;;5087769;28;20359;-74
2023/03/08 03:02:19;;;;;;;;;;;3.00;99.90;;;;;;5087159;28;20085;-75
2023/03/08 03:04:45;;;;;;;;;;;3.00;99.90;;;;;;5087184;28;19927;-74
2023/03/08 03:07:10;;;;;;;;;;;3.00;99.90;;;;;;5087959;28;19961;-74
2023/03/08 03:09:36;;;;;;;;;;;3.00;99.90;;;;;;5088076;28;19912;-74
2023/03/08 03:12:02;;;;;;;;;;;3.00;99.90;;;;;;5088727;28;20570;-74
2023/03/08 03:14:28;;;;;;;;;;;3.00;99.90;;;;;;5087335;28;20641;-74
2023/03/08 03:16:53;;;;;;;;;;;3.00;99.90;;;;;;5083287;28;19908;-75
2023/03/08 03:19:19;;;;;;;;;;;3.00;99.90;;;;;;5087380;28;19912;-74
2023/03/08 03:21:44;;;;;;;;;;;3.00;99.90;;;;;;5087312;28;19965;-74
2023/03/08 03:24:10;;;;;;;;;;;3.00;99.90;;;;;;5088561;28;20388;-74
2023/03/08 03:26:35;;;;;;;;;;;3.00;99.90;;;;;;5098595;28;19955;-74
2023/03/08 03:29:01;;;;;;;;;;;3.00;99.90;;;;;;5107392;28;19916;-74
2023/03/08 03:31:27;;;;;;;;;;;3.00;99.90;;;;;;5107929;28;19912;-74
2023/03/08 03:33:52;;;;;;;;;;;3.00;99.90;;;;;;5107828;28;20287;-74
2023/03/08 03:36:19;;;;;;;;;;;3.00;99.90;;;;;;5108002;28;19937;-74
2023/03/08 03:38:44;;;;;;;;;;;3.00;99.90;;;;;;5103742;28;19995;-74
2023/03/08 03:41:12;;;;;;;;;;;3.00;99.90;;;;;;5083680;28;20012;-74
2023/03/08 03:43:37;;;;;;;;;;;3.00;99.90;;;;;;5069069;28;19966;-74
2023/03/08 03:46:04;;;;;;;;;;;3.00;99.90;;;;;;5087772;28;19924;-74
2023/03/08 03:48:30;;;;;;;;;;;3.00;99.90;;;;;;5101687;28;19915;-74
2023/03/08 03:50:57;;;;;;;;;;;3.00;99.90;;;;;;5109239;28;19915;-74
2023/03/08 03:53:22;;;;;;;;;;;3.00;99.90;;;;;;5111238;27;19938;-74
2023/03/08 03:55:48;;;;;;;;;;;3.00;99.90;;;;;;5111400;28;19912;-75
2023/03/08 03:58:13;;;;;;;;;;;3.00;99.90;;;;;;5111223;28;19933;-74
2023/03/08 04:00:39;;;;;;;;;;;3.00;99.90;;;;;;5109181;28;19912;-74
2023/03/08 04:03:04;;;;;;;;;;;3.00;99.90;;;;;;5093466;28;19916;-74
2023/03/08 04:05:30;;;;;;;;;;;2.90;99.90;;;;;;5090206;28;19920;-74
2023/03/08 04:07:55;;;;;;;;;;;3.00;99.90;;;;;;5090678;28;19916;-74
2023/03/08 04:10:21;;;;;;;;;;;2.90;99.90;;;;;;5090357;28;19912;-74
2023/03/08 04:12:47;;;;;;;;;;;2.90;99.90;;;;;;5073025;28;19990;-74
2023/03/08 04:15:13;;;;;;;;;;;3.00;99.90;;;;;;5070051;28;19912;-74
2023/03/08 04:17:38;;;;;;;;;;;3.00;99.90;;;;;;5111311;27;20395;-74
2023/03/08 04:20:05;;;;;;;;;;;3.00;99.90;;;;;;5077244;28;19952;-74
2023/03/08 04:22:30;;;;;;;;;;;2.90;99.90;;;;;;5090212;28;20372;-74
2023/03/08 04:24:56;;;;;;;;;;;2.90;99.90;;;;;;5079819;28;20019;-74
2023/03/08 04:27:21;;;;;;;;;;;3.00;99.90;;;;;;5090261;28;19916;-74
2023/03/08 04:29:46;;;;;;;;;;;2.90;99.90;;;;;;5090158;28;19919;-74
2023/03/08 04:32:12;;;;;;;;;;;2.90;99.90;;;;;;5090049;28;20299;-74
2023/03/08 04:34:38;;;;;;;;;;;2.90;99.90;;;;;;5089783;28;19990;-74
2023/03/08 04:37:03;;;;;;;;;;;2.90;99.90;;;;;;5089435;28;19912;-74
2023/03/08 04:39:29;;;;;;;;;;;2.90;99.90;;;;;;5090058;28;19908;-74
2023/03/08 04:41:54;;;;;;;;;;;2.90;99.90;;;;;;5091217;28;19955;-73
2023/03/08 04:44:20;;;;;;;;;;;2.90;99.90;;;;;;5088913;28;19966;-74
2023/03/08 04:46:45;;;;;;;;;;;2.90;99.90;;;;;;5089313;28;19922;-73
2023/03/08 04:49:10;;;;;;;;;;;2.90;99.90;;;;;;5089739;28;19912;-74
2023/03/08 04:51:36;;;;;;;;;;;2.90;99.90;;;;;;5089730;28;19919;-74
2023/03/08 04:54:03;;;;;;;;;;;2.90;99.90;;;;;;5101755;28;20586;-74
2023/03/08 04:56:29;;;;;;;;;;;2.90;99.90;;;;;;5109947;28;19958;-74
2023/03/08 04:58:54;;;;;;;;;;;2.90;99.90;;;;;;5092947;27;20329;-74
2023/03/08 05:01:23;;;;;;;;;;;2.90;99.90;;;;;;5087899;28;19980;-74
2023/03/08 05:03:50;;;;;;;;;;;2.90;99.90;;;;;;5088768;28;20026;-74
2023/03/08 05:06:16;;;;;;;;;;;2.90;99.90;;;;;;5089284;28;19915;-74
2023/03/08 05:08:41;;;;;;;;;;;2.90;99.90;;;;;;5089479;28;20627;-74
2023/03/08 05:11:07;;;;;;;;;;;2.90;99.90;;;;;;5085935;28;20361;-74
2023/03/08 05:13:37;;;;;;;;;;;2.90;99.90;;;;;;5071100;28;19974;-74
2023/03/08 05:16:04;;;;;;;;;;;2.90;99.90;;;;;;5069177;28;20005;-74
2023/03/08 05:18:29;;;;;;;;;;;2.90;99.90;;;;;;5086378;28;19993;-74
2023/03/08 05:21:14;;;;;;;;;;;2.90;99.90;;;;;;5089355;28;20546;-74
2023/03/08 05:23:39;;;;;;;;;;;2.90;99.90;;;;;;5098123;28;19911;-74
2023/03/08 05:26:05;;;;;;;;;;;2.90;99.90;;;;;;5109314;28;20720;-73
2023/03/08 05:28:32;;;;;;;;;;;2.90;99.90;;;;;;5109416;28;19942;-73
2023/03/08 05:31:01;;;;;;;;;;;2.90;99.90;;;;;;5102268;28;19965;-74
2023/03/08 05:33:26;;;;;;;;;;;2.90;99.90;;;;;;5088790;28;19916;-74
2023/03/08 05:35:53;;;;;;;;;;;2.90;99.90;;;;;;5088895;28;19927;-74
2023/03/08 05:38:19;;;;;;;;;;;2.90;99.90;;;;;;5089004;28;20333;-73
2023/03/08 05:40:45;;;;;;;;;;;2.90;99.90;;;;;;5088314;28;19912;-74
2023/03/08 05:43:10;;;;;;;;;;;2.90;99.90;;;;;;5068268;28;20455;-74
2023/03/08 05:45:36;;;;;;;;;;;2.90;99.90;;;;;;5100702;28;20284;-74
2023/03/08 05:48:01;;;;;;;;;;;2.90;99.90;;;;;;5083926;28;19924;-73
2023/03/08 05:50:27;;;;;;;;;;;2.90;99.90;;;;;;5088240;28;19969;-74
2023/03/08 05:52:52;;;;;;;;;;;2.90;99.90;;;;;;5090968;28;19916;-73
2023/03/08 05:55:18;;;;;;;;;;;2.90;99.90;;;;;;5108531;28;19991;-74
2023/03/08 05:57:43;;;;;;;;;;;2.90;99.90;;;;;;5108736;28;19916;-74
2023/03/08 06:00:09;;;;;;;;;;;2.90;99.90;;;;;;5108876;28;20364;-74
2023/03/08 06:02:35;;;;;;;;;;;2.90;99.90;;;;;;5095535;28;20018;-74
2023/03/08 06:05:00;;;;;;;;;;;2.90;99.90;;;;;;5088768;28;19915;-74
2023/03/08 06:07:26;;;;;;;;;;;2.90;99.90;;;;;;5088626;28;19912;-74
2023/03/08 06:09:51;;;;;;;;;;;2.90;99.90;;;;;;5084732;28;19912;-74
2023/03/08 06:12:17;;;;;;;;;;;2.90;99.90;;;;;;5081128;28;19961;-74
2023/03/08 06:14:42;;;;;;;;;;;2.90;99.90;;;;;;5087828;28;19912;-74
2023/03/08 06:17:08;;;;;;;;;;;2.90;99.90;;;;;;5088227;28;19915;-74
2023/03/08 06:19:33;;;;;;;;;;;2.90;99.90;;;;;;5089512;28;20525;-74
2023/03/08 06:21:59;;;;;;;;;;;2.90;99.90;;;;;;5088281;28;19991;-74
2023/03/08 06:24:24;;;;;;;;;;;2.90;99.90;;;;;;5101855;28;20518;-74
2023/03/08 06:26:50;;;;;;;;;;;2.90;99.90;;;;;;5105543;28;20281;-74
2023/03/08 06:29:15;;;;;;;;;;;2.90;99.90;;;;;;5087961;28;20347;-74
2023/03/08 06:31:41;;;;;;;;;;;2.90;99.90;;;;;;5088056;28;19912;-74
2023/03/08 06:34:06;;;;;;;;;;;2.90;99.90;;;;;;5088065;28;20313;-74
2023/03/08 06:36:32;;;;;;;;;;;2.80;99.90;;;;;;5093803;28;20368;-74
2023/03/08 06:38:58;;;;;;;;;;;2.80;99.90;;;;;;5088346;28;19947;-74
2023/03/08 06:41:24;;;;;;;;;;;2.90;99.90;;;;;;5082195;28;19991;-74
2023/03/08 06:43:49;;;;;;;;;;;2.80;99.90;;;;;;5067561;28;20015;-74
2023/03/08 06:46:16;;;;;;;;;;;2.80;99.90;;;;;;5067510;28;19962;-74
2023/03/08 06:48:42;;;;;;;;;;;2.80;99.90;;;;;;5086545;28;19919;-74
2023/03/08 06:51:07;;;;;;;;;;;2.80;99.90;;;;;;5099589;28;19911;-74
2023/03/08 06:53:35;;;;;;;;;;;2.80;99.90;;;;;;5108195;28;19939;-73
2023/03/08 06:56:02;;;;;;;;;;;2.80;99.90;;;;;;5108332;28;19912;-74
2023/03/08 06:58:27;;;;;;;;;;;2.80;99.90;;;;;;5108190;28;19911;-74
2023/03/08 07:00:53;;;;;;;;;;;2.80;99.90;;;;;;5108088;28;19918;-74
2023/03/08 07:03:18;;;;;;;;;;;2.80;99.90;;;;;;5090320;28;19908;-74
2023/03/08 07:05:44;;;;;;;;;;;2.80;99.90;;;;;;5088037;28;19916;-74
2023/03/08 07:08:09;;;;;;;;;;;2.90;99.90;;;;;;5108213;28;20514;-74
2023/03/08 07:10:35;;;;;;;;;;;2.80;99.90;;;;;;5088227;28;19919;-74
2023/03/08 07:13:01;;;;;;;;;;;2.80;99.90;;;;;;5068199;28;19916;-74
2023/03/08 07:15:26;;;;;;;;;;;2.80;99.90;;;;;;5067387;28;19916;-74
2023/03/08 07:17:54;;;;;;;;;;;2.80;99.90;;;;;;5079235;28;19924;-74
2023/03/08 07:20:20;;;;;;;;;;;2.80;99.90;;;;;;5087643;28;19922;-74
2023/03/08 07:22:46;;;;;;;;;;;2.80;99.90;;;;;;5089864;28;20377;-74
2023/03/08 07:25:12;;;;;;;;;;;2.80;99.90;;;;;;5109419;28;19955;-74
2023/03/08 07:27:37;;;;;;;;;;;2.80;99.90;;;;;;5111426;28;20007;-75
2023/03/08 07:30:03;;;;;;;;;;;2.80;99.90;;;;;;5091339;28;20301;-74
2023/03/08 07:32:29;;;;;;;;;;;2.80;99.90;;;;;;5091243;28;19915;-74
2023/03/08 07:34:55;;;;;;;;;;;2.90;99.90;;;;;;5091179;28;20311;-73
2023/03/08 07:37:20;;;;;;;;;;;2.90;99.90;;;;;;5091142;28;19912;-74
2023/03/08 07:39:46;;;;;;;;;;;2.90;99.90;;;;;;5091157;28;19919;-74
2023/03/08 07:42:11;;;;;;;;;;;2.80;99.90;;;;;;5089481;28;19916;-74
2023/03/08 07:44:37;;;;;;;;;;;2.80;99.90;;;;;;5090932;28;20348;-74
2023/03/08 07:47:04;;;;;;;;;;;2.80;99.90;;;;;;5090988;28;19912;-74
2023/03/08 07:49:29;;;;;;;;;;;2.80;99.90;;;;;;5091176;28;19935;-74
2023/03/08 07:51:55;;;;;;;;;;;2.80;99.90;;;;;;5091020;28;20446;-74
2023/03/08 07:54:20;;;;;;;;;;;2.90;99.90;;;;;;5105536;28;19939;-74
2023/03/08 07:56:46;;;;;;;;;;;2.90;99.90;;;;;;5110462;28;19947;-74
2023/03/08 07:59:11;;;;;;;;;;;2.90;99.90;;;;;;5110331;28;19923;-74
2023/03/08 08:01:37;;;;;;;;;;;2.90;99.90;;;;;;5107921;28;19956;-74
2023/03/08 08:04:03;;;;;;;;;;;2.90;99.90;;;;;;5089925;28;20013;-74
2023/03/08 08:06:28;;;;;;;;;;;2.90;99.90;;;;;;5090799;28;20364;-74
2023/03/08 08:08:55;;;;;;;;;;;2.90;99.90;;;;;;5090800;28;19965;-74
2023/03/08 08:11:21;;;;;;;;;;;2.90;99.90;;;;;;5085548;28;19913;-74
2023/03/08 08:13:46;;;;;;;;;;;2.90;99.90;;;;;;5070097;28;19919;-74
2023/03/08 08:16:12;;;;;;;;;;;2.90;99.90;;;;;;5090933;28;19923;-75
2023/03/08 08:18:38;;;;;;;;;;;2.90;99.90;;;;;;5090258;28;19973;-74
2023/03/08 08:21:05;;;;;;;;;;;2.90;99.90;;;;;;5089901;28;19912;-74
2023/03/08 08:23:31;;;;;;;;;;;2.90;99.90;;;;;;5098260;28;19923;-75
2023/03/08 08:25:57;;;;;;;;;;;2.90;99.90;;;;;;5109514;28;19989;-74
2023/03/08 08:28:23;;;;;;;;;;;2.90;99.90;;;;;;5110112;28;19927;-74
2023/03/08 08:30:55;;;;;;;;;;;2.90;99.90;;;;;;5110702;28;19911;-75
2023/03/08 08:33:21;;;;;;;;;;;2.90;99.90;;;;;;5110107;28;19919;-75
2023/03/08 08:35:46;;;;;;;;;;;2.90;99.90;;;;;;5097125;28;20796;-74
2023/03/08 08:38:12;;;;;;;;;;;2.90;99.90;;;;;;5090098;28;20361;-74
2023/03/08 08:40:37;;;;;;;;;;;2.90;99.90;;;;;;5090711;28;19949;-74
2023/03/08 08:43:03;;;;;;;;;;;2.90;99.90;;;;;;5090445;28;19919;-75
2023/03/08 08:45:28;;;;;;;;;;;2.90;99.90;;;;;;5089803;28;19969;-75
2023/03/08 08:47:54;;;;;;;;;;;3.00;99.90;;;;;;5089792;28;20396;-74
2023/03/08 08:50:19;;;;;;;;;;;2.90;99.90;;;;;;5089927;28;20010;-74
2023/03/08 08:52:45;;;;;;;;;;;2.90;99.90;;;;;;5089737;28;19919;-74
2023/03/08 08:55:10;;;;;;;;;;;3.00;99.90;;;;;;5109919;28;20003;-75
2023/03/08 08:57:36;;;;;;;;;;;3.00;99.90;;;;;;5099467;28;19916;-74
2023/03/08 09:00:04;;;;;;;;;;;3.00;99.90;;;;;;5089904;28;20019;-75
2023/03/08 09:02:29;;;;;;;;;;;3.00;99.90;;;;;;5085775;28;19912;-75
2023/03/08 09:04:55;;;;;;;;;;;3.00;99.90;;;;;;5088949;28;19916;-75
2023/03/08 09:07:20;;;;;;;;;;;3.00;99.90;;;;;;5089640;28;19919;-75
2023/03/08 09:09:46;;;;;;;;;;;3.00;99.90;;;;;;5088161;28;20415;-75
2023/03/08 09:12:11;;;;;;;;;;;3.10;99.90;;;;;;5076790;28;19913;-74
2023/03/08 09:14:37;;;;;;;;;;;3.10;99.90;;;;;;5102403;28;19923;-74
2023/03/08 09:17:04;;;;;;;;;;;3.10;99.90;;;;;;5104408;28;19917;-75
2023/03/08 09:19:29;;;;;;;;;;;3.10;99.90;;;;;;5089576;28;19909;-74
2023/03/08 09:21:55;;;;;;;;;;;3.10;99.90;;;;;;5088587;28;19919;-74
2023/03/08 09:24:20;;;;;;;;;;;3.10;99.90;;;;;;5102385;28;19912;-75
2023/03/08 09:26:46;;;;;;;;;;;3.10;99.90;;;;;;5109266;28;19916;-74
2023/03/08 09:29:11;;;;;;;;;;;3.10;99.90;;;;;;5108773;28;19912;-74
2023/03/08 09:31:38;;;;;;;;;;;3.10;99.90;;;;;;5109360;28;19919;-74
2023/03/08 09:34:07;;;;;;;;;;;3.20;99.90;;;;;;5107611;28;19942;-74
2023/03/08 09:36:33;;;;;;;;;;;3.20;99.90;;;;;;5109301;28;19970;-74
2023/03/08 09:38:58;;;;;;;;;;;3.20;99.90;;;;;;5101741;28;19908;-75
2023/03/08 09:41:39;;;;;;;;;;;3.20;99.90;;;;;;5084216;28;19909;-75
2023/03/08 09:44:14;;;;;;;;;;;3.20;99.90;;;;;;5087717;28;19918;-75
2023/03/08 09:46:57;;;;;;;;;;;3.20;99.90;;;;;;5095114;28;20060;-76
2023/03/08 09:49:29;;;;;;;;;;;3.20;99.90;;;;;;5088110;28;19968;-75
2023/03/08 09:52:01;;;;;;;;;;;3.30;99.90;;;;;;5088616;28;19915;-75
2023/03/08 09:54:28;;;;;;;;;;;3.30;99.90;;;;;;5104250;28;19918;-75
2023/03/08 09:56:55;;;;;;;;;;;3.30;99.90;;;;;;5109117;28;20369;-75
2023/03/08 09:59:32;;;;;;;;;;;3.40;99.90;;;;;;5109202;28;19923;-75
2023/03/08 10:02:01;;;;;;;;;;;3.40;99.90;;;;;;5104304;28;19912;-75
2023/03/08 10:04:45;;;;;;;;;;;3.40;99.90;;;;;;5088839;28;20292;-75
2023/03/08 10:07:16;;;;;;;;;;;3.40;99.90;;;;;;5088575;28;19952;-75
2023/03/08 10:09:46;;;;;;;;;;;3.50;99.90;;;;;;5088338;28;19947;-75
2023/03/08 10:12:28;;;;;;;;;;;3.50;99.90;;;;;;5075696;28;20641;-75
2023/03/08 10:15:17;;;;;;;;;;;3.50;99.90;;;;;;5100358;28;19966;-75
2023/03/08 10:17:45;;;;;;;;;;;3.50;99.90;;;;;;5068113;28;20015;-76
2023/03/08 10:20:23;;;;;;;;;;;3.50;99.90;;;;;;5092850;28;19922;-75
2023/03/08 10:23:01;;;;;;;;;;;3.60;99.90;;;;;;5093872;28;20440;-76
2023/03/08 10:25:32;;;;;;;;;;;3.60;99.90;;;;;;5102243;28;19985;-76
2023/03/08 10:27:59;;;;;;;;;;;3.60;99.90;;;;;;5088294;28;19948;-76
2023/03/08 10:30:26;;;;;;;;;;;3.70;99.90;;;;;;5088290;28;19915;-76
2023/03/08 10:32:54;;;;;;;;;;;3.70;99.90;;;;;;5087929;28;19912;-76
2023/03/08 10:35:29;;;;;;;;;;;3.70;99.90;;;;;;5092776;28;19915;-76
2023/03/08 10:37:55;;;;;;;;;;;3.70;99.90;;;;;;5108468;28;19912;-76
2023/03/08 10:40:21;;;;;;;;;;;3.70;99.90;;;;;;5089275;28;19919;-76
2023/03/08 10:42:52;;;;;;;;;;;3.80;99.90;;;;;;5070493;28;19920;-76
2023/03/08 10:45:23;;;;;;;;;;;3.70;99.90;;;;;;5067628;28;19916;-76
2023/03/08 10:48:02;;;;;;;;;;;3.80;99.90;;;;;;5111592;28;19908;-76
2023/03/08 10:50:29;;;;;;;;;;;3.80;99.80;;;;;;5103309;28;19923;-76
2023/03/08 10:52:54;;;;;;;;;;;3.80;99.80;;;;;;5108601;28;20387;-76
2023/03/08 10:55:26;;;;;;;;;;;3.90;99.70;;;;;;5108356;28;19964;-76
2023/03/08 10:57:56;;;;;;;;;;;3.90;99.60;;;;;;5108342;28;20715;-75
2023/03/08 11:00:28;;;;;;;;;;;4.00;99.50;;;;;;5111070;28;19912;-76
2023/03/08 11:03:10;;;;;;;;;;;4.10;99.50;;;;;;5092923;28;19938;-76
2023/03/08 11:05:35;;;;;;;;;;;4.10;99.70;;;;;;5085835;28;19998;-76
2023/03/08 11:08:01;;;;;;;;;;;4.20;99.40;;;;;;5091726;28;19999;-76
2023/03/08 11:10:27;;;;;;;;;;;4.20;99.30;;;;;;5091730;28;19912;-76
2023/03/08 11:13:12;;;;;;;;;;;4.20;99.40;;;;;;5091632;28;19918;-77
2023/03/08 11:15:39;;;;;;;;;;;4.20;99.40;;;;;;5091932;28;20423;-76
2023/03/08 11:18:04;;;;;;;;;;;4.20;99.40;;;;;;5092001;28;20018;-76
2023/03/08 11:20:40;;;;;;;;;;;4.20;99.40;;;;;;5092024;28;20322;-77
2023/03/08 11:23:05;;;;;;;;;;;4.20;99.40;;;;;;5096290;28;19911;-77
2023/03/08 11:25:34;;;;;;;;;;;4.20;99.40;;;;;;5110448;28;19915;-77
2023/03/08 11:28:07;;;;;;;;;;;4.30;99.50;;;;;;5111911;28;19912;-77
2023/03/08 11:30:35;;;;;;;;;;;4.30;99.50;;;;;;5111381;27;19965;-77
2023/03/08 11:33:04;;;;;;;;;;;4.30;99.50;;;;;;5111881;28;19918;-77
2023/03/08 11:35:48;;;;;;;;;;;4.30;99.50;;;;;;5111893;28;19961;-77
2023/03/08 11:38:33;;;;;;;;;;;4.30;99.40;;;;;;5111904;28;19907;-77
2023/03/08 11:40:59;;;;;;;;;;;4.40;99.50;;;;;;5072949;28;19999;-76
2023/03/08 11:43:36;;;;;;;;;;;4.40;99.50;;;;;;5090643;28;20026;-76
2023/03/08 11:46:25;;;;;;;;;;;4.30;99.50;;;;;;5105258;28;19942;-76
2023/03/08 11:49:10;;;;;;;;;;;4.30;99.50;;;;;;5060940;28;19995;-76
2023/03/08 11:51:46;;;;;;;;;;;4.40;99.50;;;;;;5091070;28;19912;-76
2023/03/08 11:54:11;;;;;;;;;;;4.40;99.40;;;;;;5104463;28;19918;-77
2023/03/08 11:56:45;;;;;;;;;;;4.40;99.50;;;;;;5111415;28;20288;-76
2023/03/08 11:59:11;;;;;;;;;;;4.40;99.50;;;;;;5110661;28;19916;-76
2023/03/08 12:01:40;;;;;;;;;;;4.40;99.50;;;;;;5108618;28;19919;-77
2023/03/08 12:04:12;;;;;;;;;;;4.40;99.50;;;;;;5088570;28;20300;-77
2023/03/08 12:06:39;;;;;;;;;;;4.40;99.50;;;;;;5090819;28;20365;-76
2023/03/08 12:09:28;;;;;;;;;;;4.40;99.50;;;;;;5082783;28;19920;-76
2023/03/08 12:11:59;;;;;;;;;;;4.40;99.60;;;;;;5082403;28;19915;-76
2023/03/08 12:14:29;;;;;;;;;;;4.40;99.60;;;;;;5109340;28;20003;-76
2023/03/08 12:17:19;;;;;;;;;;;4.30;99.60;;;;;;5106851;28;20653;-75
2023/03/08 12:19:46;;;;;;;;;;;4.40;99.70;;;;;;5090822;28;19927;-76
2023/03/08 12:22:19;;;;;;;;;;;4.40;99.70;;;;;;5090711;28;20510;-76
2023/03/08 12:24:51;;;;;;;;;;;4.30;99.70;;;;;;5108697;28;19985;-76
2023/03/08 12:27:23;;;;;;;;;;;4.40;99.70;;;;;;5108657;28;19950;-76
2023/03/08 12:29:52;;;;;;;;;;;4.30;99.70;;;;;;5092110;28;19919;-76
2023/03/08 12:32:18;;;;;;;;;;;4.30;99.80;;;;;;5090225;28;20337;-76
2023/03/08 12:34:45;;;;;;;;;;;4.30;99.80;;;;;;5088869;28;20658;-75
2023/03/08 12:37:21;;;;;;;;;;;4.30;99.80;;;;;;5090486;28;19912;-75
2023/03/08 12:39:57;;;;;;;;;;;4.30;99.80;;;;;;5090056;28;19916;-75
2023/03/08 12:42:31;;;;;;;;;;;4.30;99.80;;;;;;5096028;28;19916;-75
2023/03/08 12:45:14;;;;;;;;;;;4.30;99.90;;;;;;5089909;28;19995;-75
2023/03/08 12:47:40;;;;;;;;;;;4.30;99.80;;;;;;5089807;28;20436;-75
2023/03/08 12:50:08;;;;;;;;;;;4.30;99.80;;;;;;5089923;28;19912;-75
2023/03/08 12:52:34;;;;;;;;;;;4.40;99.80;;;;;;5089946;28;19973;-75
2023/03/08 12:55:00;;;;;;;;;;;4.40;99.80;;;;;;5108033;28;19916;-75
2023/03/08 12:57:32;;;;;;;;;;;4.30;99.80;;;;;;5110405;28;19918;-75
2023/03/08 12:59:59;;;;;;;;;;;4.40;99.80;;;;;;5110476;28;19964;-76
2023/03/08 13:02:25;;;;;;;;;;;4.40;99.80;;;;;;5098558;28;19931;-76
2023/03/08 13:05:00;;;;;;;;;;;4.30;99.70;;;;;;5089010;28;20364;-76
2023/03/08 13:07:38;;;;;;;;;;;4.40;99.70;;;;;;5108003;28;20420;-76
2023/03/08 13:10:07;;;;;;;;;;;4.30;99.70;;;;;;5088960;28;19916;-76
2023/03/08 13:12:37;;;;;;;;;;;4.30;99.70;;;;;;5089573;28;19916;-76
2023/03/08 13:15:02;;;;;;;;;;;4.40;99.80;;;;;;5101747;28;19919;-76
2023/03/08 13:17:31;;;;;;;;;;;4.30;99.80;;;;;;5077502;28;19920;-75
2023/03/08 13:19:58;;;;;;;;;;;4.30;99.90;;;;;;5091173;28;20005;-76
2023/03/08 13:22:41;;;;;;;;;;;4.30;99.90;;;;;;5108450;27;19943;-76
2023/03/08 13:25:12;;;;;;;;;;;4.30;99.80;;;;;;5081492;28;20604;-75
2023/03/08 13:27:38;;;;;;;;;;;4.40;99.80;;;;;;5089187;28;19912;-75
2023/03/08 13:30:31;;;;;;;;;;;4.40;99.80;;;;;;5088566;28;20307;-75
2023/03/08 13:32:57;;;;;;;;;;;4.40;99.80;;;;;;5079847;28;19912;-75
2023/03/08 13:35:23;;;;;;;;;;;4.40;99.80;;;;;;5089052;28;20361;-75
2023/03/08 13:37:57;;;;;;;;;;;4.40;99.80;;;;;;5107309;28;19925;-75
2023/03/08 13:40:23;;;;;;;;;;;4.30;99.80;;;;;;5091422;28;19912;-75
2023/03/08 13:43:12;;;;;;;;;;;4.30;99.80;;;;;;5071001;28;20288;-75
2023/03/08 13:45:37;;;;;;;;;;;4.30;99.80;;;;;;5095455;28;19920;-75
2023/03/08 13:48:05;;;;;;;;;;;4.30;99.90;;;;;;5094334;28;19923;-75
2023/03/08 13:50:35;;;;;;;;;;;4.30;99.90;;;;;;5096001;28;20002;-75
2023/03/08 13:53:02;;;;;;;;;;;4.30;99.90;;;;;;5108053;28;19912;-75
2023/03/08 13:55:32;;;;;;;;;;;4.30;99.90;;;;;;5108251;28;19919;-75
2023/03/08 13:57:58;;;;;;;;;;;4.20;99.90;;;;;;5108107;28;19979;-76
2023/03/08 14:00:25;;;;;;;;;;;4.30;99.90;;;;;;5107692;28;19915;-76
2023/03/08 14:02:51;;;;;;;;;;;4.30;99.90;;;;;;5095991;28;19948;-76
2023/03/08 14:05:18;;;;;;;;;;;4.30;99.90;;;;;;5087249;28;20014;-75
2023/03/08 14:07:53;;;;;;;;;;;4.30;99.90;;;;;;5087837;28;20376;-75
2023/03/08 14:10:23;;;;;;;;;;;4.30;99.90;;;;;;5093579;28;19911;-75
2023/03/08 14:12:48;;;;;;;;;;;4.30;99.90;;;;;;5088850;28;19912;-75
2023/03/08 14:15:17;;;;;;;;;;;4.30;99.90;;;;;;5086024;28;19977;-75
2023/03/08 14:17:43;;;;;;;;;;;4.20;99.90;;;;;;5098175;28;20303;-74
2023/03/08 14:20:19;;;;;;;;;;;4.20;99.90;;;;;;5107264;28;19916;-75
2023/03/08 14:22:53;;;;;;;;;;;4.20;99.90;;;;;;5106684;28;19919;-75
2023/03/08 14:25:24;;;;;;;;;;;4.20;99.90;;;;;;5094617;28;20453;-75
2023/03/08 14:27:50;;;;;;;;;;;4.20;99.90;;;;;;5093229;28;19943;-75
2023/03/08 14:30:16;;;;;;;;;;;4.20;99.90;;;;;;5096899;28;19962;-76
2023/03/08 14:33:11;;;;;;;;;;;4.20;99.90;;;;;;5107041;28;19912;-75
2023/03/08 14:35:38;;;;;;;;;;;4.20;99.90;;;;;;5097561;28;19908;-75